sensor_id;sensor_type;location;lat;lon;timestamp;P1;durP1;ratioP1;P2;durP2;ratioP2
18661;SDS011;61528;49.456;11.098;2022-07-29T00:02:06;3.20;;;2.20;;
18661;SDS011;61528;49.456;11.098;2022-07-29T00:04:36;4.40;;;2.20;;
18661;SDS011;61528;49.456;11.098;2022-07-29T00:07:02;5.47;;;1.90;;
18661;SDS011;61528;49.456;11.098;2022-07-29T00:09:29;2.87;;;2.10;;
18661;SDS011;61528;49.456;11.098;2022-07-29T00:11:55;3.50;;;2.10;;
18661;SDS011;61528;49.456;11.098;2022-07-29T00:14:22;4.83;;;2.07;;
18661;SDS011;61528;49.456;11.098;2022-07-29T00:16:48;2.90;;;2.17;;
18661;SDS011;61528;49.456;11.098;2022-07-29T00:19:14;2.70;;;2.00;;
18661;SDS011;61528;49.456;11.098;2022-07-29T00:21:41;4.30;;;1.83;;
18661;SDS011;61528;49.456;11.098;2022-07-29T00:24:07;4.60;;;1.83;;
18661;SDS011;61528;49.456;11.098;2022-07-29T00:26:33;2.77;;;1.97;;
18661;SDS011;61528;49.456;11.098;2022-07-29T00:29:00;4.73;;;2.20;;
18661;SDS011;61528;49.456;11.098;2022-07-29T00:31:26;5.27;;;2.30;;
18661;SDS011;61528;49.456;11.098;2022-07-29T00:33:53;4.67;;;2.00;;
18661;SDS011;61528;49.456;11.098;2022-07-29T00:36:19;5.13;;;2.10;;
18661;SDS011;61528;49.456;11.098;2022-07-29T00:38:49;2.10;;;1.90;;
18661;SDS011;61528;49.456;11.098;2022-07-29T00:41:15;4.23;;;2.03;;
18661;SDS011;61528;49.456;11.098;2022-07-29T00:43:42;2.90;;;2.20;;
18661;SDS011;61528;49.456;11.098;2022-07-29T00:46:09;4.47;;;2.00;;
18661;SDS011;61528;49.456;11.098;2022-07-29T00:48:35;4.03;;;2.20;;
18661;SDS011;61528;49.456;11.098;2022-07-29T00:51:02;4.67;;;2.40;;
18661;SDS011;61528;49.456;11.098;2022-07-29T00:53:29;3.87;;;2.20;;
18661;SDS011;61528;49.456;11.098;2022-07-29T00:55:55;3.77;;;2.20;;
18661;SDS011;61528;49.456;11.098;2022-07-29T00:58:22;2.80;;;1.73;;
18661;SDS011;61528;49.456;11.098;2022-07-29T01:00:48;2.60;;;1.80;;
18661;SDS011;61528;49.456;11.098;2022-07-29T01:03:15;6.10;;;2.00;;
18661;SDS011;61528;49.456;11.098;2022-07-29T01:05:42;4.40;;;2.20;;
18661;SDS011;61528;49.456;11.098;2022-07-29T01:08:09;2.60;;;1.90;;
18661;SDS011;61528;49.456;11.098;2022-07-29T01:10:37;4.33;;;2.10;;
18661;SDS011;61528;49.456;11.098;2022-07-29T01:13:04;2.00;;;1.80;;
18661;SDS011;61528;49.456;11.098;2022-07-29T01:15:30;4.17;;;1.90;;
18661;SDS011;61528;49.456;11.098;2022-07-29T01:18:00;3.77;;;2.37;;
18661;SDS011;61528;49.456;11.098;2022-07-29T01:30:46;3.47;;;2.10;;
18661;SDS011;61528;49.456;11.098;2022-07-29T01:33:13;4.40;;;2.30;;
18661;SDS011;61528;49.456;11.098;2022-07-29T01:36:01;3.57;;;1.93;;
18661;SDS011;61528;49.456;11.098;2022-07-29T01:38:31;6.17;;;2.10;;
18661;SDS011;61528;49.456;11.098;2022-07-29T01:41:02;2.80;;;2.40;;
18661;SDS011;61528;49.456;11.098;2022-07-29T01:43:36;3.40;;;2.30;;
18661;SDS011;61528;49.456;11.098;2022-07-29T01:46:05;2.53;;;2.33;;
18661;SDS011;61528;49.456;11.098;2022-07-29T01:48:37;2.67;;;2.43;;
18661;SDS011;61528;49.456;11.098;2022-07-29T01:53:37;4.53;;;2.00;;
18661;SDS011;61528;49.456;11.098;2022-07-29T01:56:05;2.93;;;2.00;;
18661;SDS011;61528;49.456;11.098;2022-07-29T01:58:32;3.13;;;2.20;;
18661;SDS011;61528;49.456;11.098;2022-07-29T02:01:00;3.77;;;2.57;;
18661;SDS011;61528;49.456;11.098;2022-07-29T02:03:28;2.90;;;2.37;;
18661;SDS011;61528;49.456;11.098;2022-07-29T02:05:55;2.67;;;2.30;;
18661;SDS011;61528;49.456;11.098;2022-07-29T02:08:22;3.13;;;2.20;;
18661;SDS011;61528;49.456;11.098;2022-07-29T02:10:50;4.43;;;2.40;;
18661;SDS011;61528;49.456;11.098;2022-07-29T02:13:17;3.40;;;2.37;;
18661;SDS011;61528;49.456;11.098;2022-07-29T02:15:44;3.67;;;2.10;;
18661;SDS011;61528;49.456;11.098;2022-07-29T02:18:15;3.87;;;2.20;;
18661;SDS011;61528;49.456;11.098;2022-07-29T02:20:44;3.07;;;2.17;;
18661;SDS011;61528;49.456;11.098;2022-07-29T02:23:11;3.77;;;2.47;;
18661;SDS011;61528;49.456;11.098;2022-07-29T02:25:38;5.83;;;2.40;;
18661;SDS011;61528;49.456;11.098;2022-07-29T02:28:06;4.73;;;2.60;;
18661;SDS011;61528;49.456;11.098;2022-07-29T02:30:32;3.33;;;2.10;;
18661;SDS011;61528;49.456;11.098;2022-07-29T02:32:58;2.97;;;2.13;;
18661;SDS011;61528;49.456;11.098;2022-07-29T02:35:25;3.90;;;2.20;;
18661;SDS011;61528;49.456;11.098;2022-07-29T02:37:51;4.23;;;1.97;;
18661;SDS011;61528;49.456;11.098;2022-07-29T02:40:37;3.87;;;2.03;;
18661;SDS011;61528;49.456;11.098;2022-07-29T02:43:05;3.83;;;1.93;;
18661;SDS011;61528;49.456;11.098;2022-07-29T02:45:32;3.97;;;2.40;;
18661;SDS011;61528;49.456;11.098;2022-07-29T02:47:59;2.60;;;2.07;;
18661;SDS011;61528;49.456;11.098;2022-07-29T02:50:31;5.27;;;2.20;;
18661;SDS011;61528;49.456;11.098;2022-07-29T02:53:01;2.33;;;1.97;;
18661;SDS011;61528;49.456;11.098;2022-07-29T02:55:40;4.50;;;2.40;;
18661;SDS011;61528;49.456;11.098;2022-07-29T02:58:22;3.03;;;2.17;;
18661;SDS011;61528;49.456;11.098;2022-07-29T03:00:57;3.93;;;1.83;;
18661;SDS011;61528;49.456;11.098;2022-07-29T03:03:25;5.43;;;2.10;;
18661;SDS011;61528;49.456;11.098;2022-07-29T03:05:55;3.30;;;1.93;;
18661;SDS011;61528;49.456;11.098;2022-07-29T03:08:22;4.00;;;2.20;;
18661;SDS011;61528;49.456;11.098;2022-07-29T03:10:48;2.10;;;1.90;;
18661;SDS011;61528;49.456;11.098;2022-07-29T03:13:15;3.70;;;2.10;;
18661;SDS011;61528;49.456;11.098;2022-07-29T03:15:43;2.40;;;1.90;;
18661;SDS011;61528;49.456;11.098;2022-07-29T03:18:09;4.00;;;2.00;;
18661;SDS011;61528;49.456;11.098;2022-07-29T03:20:37;3.90;;;2.10;;
18661;SDS011;61528;49.456;11.098;2022-07-29T03:23:04;3.20;;;1.93;;
18661;SDS011;61528;49.456;11.098;2022-07-29T03:25:30;2.40;;;2.20;;
18661;SDS011;61528;49.456;11.098;2022-07-29T03:27:56;3.40;;;2.03;;
18661;SDS011;61528;49.456;11.098;2022-07-29T03:30:23;4.40;;;1.97;;
18661;SDS011;61528;49.456;11.098;2022-07-29T03:32:50;5.43;;;2.17;;
18661;SDS011;61528;49.456;11.098;2022-07-29T03:35:16;5.30;;;2.20;;
18661;SDS011;61528;49.456;11.098;2022-07-29T03:37:43;4.23;;;1.93;;
18661;SDS011;61528;49.456;11.098;2022-07-29T03:40:09;5.30;;;2.33;;
18661;SDS011;61528;49.456;11.098;2022-07-29T03:42:37;5.13;;;2.10;;
18661;SDS011;61528;49.456;11.098;2022-07-29T03:45:06;2.57;;;2.07;;
18661;SDS011;61528;49.456;11.098;2022-07-29T03:47:33;4.67;;;1.90;;
18661;SDS011;61528;49.456;11.098;2022-07-29T03:50:02;3.10;;;1.90;;
18661;SDS011;61528;49.456;11.098;2022-07-29T03:52:31;3.33;;;2.03;;
18661;SDS011;61528;49.456;11.098;2022-07-29T03:54:57;2.27;;;2.00;;
18661;SDS011;61528;49.456;11.098;2022-07-29T03:57:24;4.13;;;2.30;;
18661;SDS011;61528;49.456;11.098;2022-07-29T03:59:51;2.47;;;1.77;;
18661;SDS011;61528;49.456;11.098;2022-07-29T04:02:18;3.03;;;2.00;;
18661;SDS011;61528;49.456;11.098;2022-07-29T04:04:44;2.60;;;2.00;;
18661;SDS011;61528;49.456;11.098;2022-07-29T04:07:12;2.97;;;2.10;;
18661;SDS011;61528;49.456;11.098;2022-07-29T04:09:38;3.70;;;2.00;;
18661;SDS011;61528;49.456;11.098;2022-07-29T04:12:04;3.07;;;2.17;;
18661;SDS011;61528;49.456;11.098;2022-07-29T04:14:31;5.57;;;2.10;;
18661;SDS011;61528;49.456;11.098;2022-07-29T04:16:58;3.23;;;2.30;;
18661;SDS011;61528;49.456;11.098;2022-07-29T04:19:24;5.63;;;2.33;;
18661;SDS011;61528;49.456;11.098;2022-07-29T04:21:50;4.67;;;2.30;;
18661;SDS011;61528;49.456;11.098;2022-07-29T04:24:16;5.17;;;2.20;;
18661;SDS011;61528;49.456;11.098;2022-07-29T04:26:42;3.87;;;2.60;;
18661;SDS011;61528;49.456;11.098;2022-07-29T04:29:09;5.23;;;2.57;;
18661;SDS011;61528;49.456;11.098;2022-07-29T04:31:36;4.87;;;2.60;;
18661;SDS011;61528;49.456;11.098;2022-07-29T04:34:03;2.93;;;2.13;;
18661;SDS011;61528;49.456;11.098;2022-07-29T04:36:29;4.47;;;2.03;;
18661;SDS011;61528;49.456;11.098;2022-07-29T04:38:55;5.63;;;2.10;;
18661;SDS011;61528;49.456;11.098;2022-07-29T04:41:21;3.40;;;1.90;;
18661;SDS011;61528;49.456;11.098;2022-07-29T04:43:47;3.83;;;1.87;;
18661;SDS011;61528;49.456;11.098;2022-07-29T04:46:14;5.40;;;2.70;;
18661;SDS011;61528;49.456;11.098;2022-07-29T04:48:40;5.03;;;2.93;;
18661;SDS011;61528;49.456;11.098;2022-07-29T04:51:06;3.43;;;2.27;;
18661;SDS011;61528;49.456;11.098;2022-07-29T04:53:32;5.83;;;2.90;;
18661;SDS011;61528;49.456;11.098;2022-07-29T04:55:58;6.07;;;2.10;;
18661;SDS011;61528;49.456;11.098;2022-07-29T04:58:25;6.13;;;2.13;;
18661;SDS011;61528;49.456;11.098;2022-07-29T05:00:51;5.77;;;2.30;;
18661;SDS011;61528;49.456;11.098;2022-07-29T05:03:18;5.10;;;2.00;;
18661;SDS011;61528;49.456;11.098;2022-07-29T05:05:44;3.87;;;2.20;;
18661;SDS011;61528;49.456;11.098;2022-07-29T05:08:10;5.80;;;2.80;;
18661;SDS011;61528;49.456;11.098;2022-07-29T05:10:36;9.17;;;3.00;;
18661;SDS011;61528;49.456;11.098;2022-07-29T05:13:04;9.77;;;2.50;;
18661;SDS011;61528;49.456;11.098;2022-07-29T05:15:31;7.27;;;2.40;;
18661;SDS011;61528;49.456;11.098;2022-07-29T05:17:57;7.20;;;2.60;;
18661;SDS011;61528;49.456;11.098;2022-07-29T05:20:23;6.07;;;2.43;;
18661;SDS011;61528;49.456;11.098;2022-07-29T05:22:53;7.43;;;2.60;;
18661;SDS011;61528;49.456;11.098;2022-07-29T05:25:20;3.60;;;2.30;;
18661;SDS011;61528;49.456;11.098;2022-07-29T05:27:46;3.80;;;2.37;;
18661;SDS011;61528;49.456;11.098;2022-07-29T05:30:12;6.43;;;2.43;;
18661;SDS011;61528;49.456;11.098;2022-07-29T05:32:38;6.23;;;2.53;;
18661;SDS011;61528;49.456;11.098;2022-07-29T05:35:05;2.93;;;2.13;;
18661;SDS011;61528;49.456;11.098;2022-07-29T05:37:31;2.80;;;2.07;;
18661;SDS011;61528;49.456;11.098;2022-07-29T05:39:57;5.53;;;2.37;;
18661;SDS011;61528;49.456;11.098;2022-07-29T05:42:24;2.93;;;2.47;;
18661;SDS011;61528;49.456;11.098;2022-07-29T05:44:50;6.17;;;2.40;;
18661;SDS011;61528;49.456;11.098;2022-07-29T05:47:16;6.37;;;2.03;;
18661;SDS011;61528;49.456;11.098;2022-07-29T05:49:43;2.90;;;2.20;;
18661;SDS011;61528;49.456;11.098;2022-07-29T05:52:09;3.70;;;2.53;;
18661;SDS011;61528;49.456;11.098;2022-07-29T05:54:35;5.10;;;2.43;;
18661;SDS011;61528;49.456;11.098;2022-07-29T05:57:08;3.53;;;2.30;;
18661;SDS011;61528;49.456;11.098;2022-07-29T05:59:37;3.77;;;2.33;;
18661;SDS011;61528;49.456;11.098;2022-07-29T06:02:03;3.77;;;2.33;;
18661;SDS011;61528;49.456;11.098;2022-07-29T06:04:30;7.87;;;2.53;;
18661;SDS011;61528;49.456;11.098;2022-07-29T06:06:56;6.73;;;2.60;;
18661;SDS011;61528;49.456;11.098;2022-07-29T06:09:23;3.27;;;2.83;;
18661;SDS011;61528;49.456;11.098;2022-07-29T06:11:49;7.63;;;3.23;;
18661;SDS011;61528;49.456;11.098;2022-07-29T06:14:15;4.47;;;2.60;;
18661;SDS011;61528;49.456;11.098;2022-07-29T06:16:41;5.17;;;2.67;;
18661;SDS011;61528;49.456;11.098;2022-07-29T06:19:07;7.23;;;2.97;;
18661;SDS011;61528;49.456;11.098;2022-07-29T06:21:34;4.00;;;3.00;;
18661;SDS011;61528;49.456;11.098;2022-07-29T06:24:00;5.70;;;2.90;;
18661;SDS011;61528;49.456;11.098;2022-07-29T06:26:26;5.63;;;3.00;;
18661;SDS011;61528;49.456;11.098;2022-07-29T06:28:53;2.90;;;2.33;;
18661;SDS011;61528;49.456;11.098;2022-07-29T06:31:19;4.40;;;2.90;;
18661;SDS011;61528;49.456;11.098;2022-07-29T06:33:45;7.90;;;2.80;;
18661;SDS011;61528;49.456;11.098;2022-07-29T06:36:11;4.70;;;2.80;;
18661;SDS011;61528;49.456;11.098;2022-07-29T06:38:38;4.93;;;2.53;;
18661;SDS011;61528;49.456;11.098;2022-07-29T06:41:04;5.40;;;2.60;;
18661;SDS011;61528;49.456;11.098;2022-07-29T06:43:40;3.77;;;2.67;;
18661;SDS011;61528;49.456;11.098;2022-07-29T06:46:07;8.43;;;2.70;;
18661;SDS011;61528;49.456;11.098;2022-07-29T06:48:34;4.30;;;2.87;;
18661;SDS011;61528;49.456;11.098;2022-07-29T06:51:04;4.73;;;2.93;;
18661;SDS011;61528;49.456;11.098;2022-07-29T06:53:31;5.73;;;2.53;;
18661;SDS011;61528;49.456;11.098;2022-07-29T06:55:58;4.37;;;2.83;;
18661;SDS011;61528;49.456;11.098;2022-07-29T06:58:25;5.47;;;2.80;;
18661;SDS011;61528;49.456;11.098;2022-07-29T07:00:52;2.83;;;2.50;;
18661;SDS011;61528;49.456;11.098;2022-07-29T07:03:19;3.30;;;2.87;;
18661;SDS011;61528;49.456;11.098;2022-07-29T07:05:45;3.10;;;2.80;;
18661;SDS011;61528;49.456;11.098;2022-07-29T07:08:12;4.00;;;3.20;;
18661;SDS011;61528;49.456;11.098;2022-07-29T07:10:39;3.87;;;2.83;;
18661;SDS011;61528;49.456;11.098;2022-07-29T07:13:05;6.33;;;2.77;;
18661;SDS011;61528;49.456;11.098;2022-07-29T07:15:32;3.40;;;2.63;;
18661;SDS011;61528;49.456;11.098;2022-07-29T07:17:58;6.13;;;2.90;;
18661;SDS011;61528;49.456;11.098;2022-07-29T07:20:24;3.60;;;2.83;;
18661;SDS011;61528;49.456;11.098;2022-07-29T07:22:51;5.80;;;2.70;;
18661;SDS011;61528;49.456;11.098;2022-07-29T07:25:17;2.93;;;2.67;;
18661;SDS011;61528;49.456;11.098;2022-07-29T07:27:44;4.07;;;3.07;;
18661;SDS011;61528;49.456;11.098;2022-07-29T07:30:11;4.03;;;2.53;;
18661;SDS011;61528;49.456;11.098;2022-07-29T07:32:37;4.13;;;2.80;;
18661;SDS011;61528;49.456;11.098;2022-07-29T07:35:04;7.67;;;2.90;;
18661;SDS011;61528;49.456;11.098;2022-07-29T07:37:30;3.00;;;2.70;;
18661;SDS011;61528;49.456;11.098;2022-07-29T07:39:56;4.53;;;2.90;;
18661;SDS011;61528;49.456;11.098;2022-07-29T07:42:23;3.80;;;2.83;;
18661;SDS011;61528;49.456;11.098;2022-07-29T07:44:50;4.53;;;2.87;;
18661;SDS011;61528;49.456;11.098;2022-07-29T07:47:16;4.33;;;2.90;;
18661;SDS011;61528;49.456;11.098;2022-07-29T07:49:48;7.57;;;3.27;;
18661;SDS011;61528;49.456;11.098;2022-07-29T07:52:15;6.53;;;2.97;;
18661;SDS011;61528;49.456;11.098;2022-07-29T07:54:42;3.67;;;2.73;;
18661;SDS011;61528;49.456;11.098;2022-07-29T07:57:10;5.87;;;2.90;;
18661;SDS011;61528;49.456;11.098;2022-07-29T07:59:36;4.70;;;2.80;;
18661;SDS011;61528;49.456;11.098;2022-07-29T08:02:02;7.37;;;3.20;;
18661;SDS011;61528;49.456;11.098;2022-07-29T08:04:28;5.23;;;2.80;;
18661;SDS011;61528;49.456;11.098;2022-07-29T08:06:55;3.60;;;3.00;;
18661;SDS011;61528;49.456;11.098;2022-07-29T08:09:23;4.87;;;3.03;;
18661;SDS011;61528;49.456;11.098;2022-07-29T08:11:49;7.90;;;3.30;;
18661;SDS011;61528;49.456;11.098;2022-07-29T08:14:16;4.90;;;2.90;;
18661;SDS011;61528;49.456;11.098;2022-07-29T08:16:42;5.13;;;2.97;;
18661;SDS011;61528;49.456;11.098;2022-07-29T08:19:08;4.07;;;3.17;;
18661;SDS011;61528;49.456;11.098;2022-07-29T08:21:35;4.13;;;2.90;;
18661;SDS011;61528;49.456;11.098;2022-07-29T08:24:02;4.90;;;3.07;;
18661;SDS011;61528;49.456;11.098;2022-07-29T08:26:46;5.77;;;3.30;;
18661;SDS011;61528;49.456;11.098;2022-07-29T08:29:13;3.87;;;2.70;;
18661;SDS011;61528;49.456;11.098;2022-07-29T08:31:39;4.03;;;2.87;;
18661;SDS011;61528;49.456;11.098;2022-07-29T08:34:05;4.57;;;2.70;;
18661;SDS011;61528;49.456;11.098;2022-07-29T08:36:32;3.63;;;3.23;;
18661;SDS011;61528;49.456;11.098;2022-07-29T08:38:59;6.73;;;3.07;;
18661;SDS011;61528;49.456;11.098;2022-07-29T08:41:25;5.63;;;3.23;;
18661;SDS011;61528;49.456;11.098;2022-07-29T08:43:52;4.73;;;3.00;;
18661;SDS011;61528;49.456;11.098;2022-07-29T08:46:19;5.97;;;3.10;;
18661;SDS011;61528;49.456;11.098;2022-07-29T08:48:46;3.90;;;3.13;;
18661;SDS011;61528;49.456;11.098;2022-07-29T08:51:13;3.73;;;3.20;;
18661;SDS011;61528;49.456;11.098;2022-07-29T08:53:40;7.00;;;3.07;;
18661;SDS011;61528;49.456;11.098;2022-07-29T08:56:08;4.53;;;3.30;;
18661;SDS011;61528;49.456;11.098;2022-07-29T08:58:37;7.33;;;3.43;;
18661;SDS011;61528;49.456;11.098;2022-07-29T09:01:03;4.70;;;3.47;;
18661;SDS011;61528;49.456;11.098;2022-07-29T09:03:31;4.00;;;3.30;;
18661;SDS011;61528;49.456;11.098;2022-07-29T09:06:00;3.73;;;3.20;;
18661;SDS011;61528;49.456;11.098;2022-07-29T09:08:27;5.57;;;3.67;;
18661;SDS011;61528;49.456;11.098;2022-07-29T09:10:54;4.73;;;3.47;;
18661;SDS011;61528;49.456;11.098;2022-07-29T09:13:25;3.67;;;3.33;;
18661;SDS011;61528;49.456;11.098;2022-07-29T09:15:51;4.90;;;3.40;;
18661;SDS011;61528;49.456;11.098;2022-07-29T09:21:03;4.83;;;3.40;;
18661;SDS011;61528;49.456;11.098;2022-07-29T09:24:10;3.53;;;3.27;;
18661;SDS011;61528;49.456;11.098;2022-07-29T09:26:36;4.27;;;3.50;;
18661;SDS011;61528;49.456;11.098;2022-07-29T09:32:08;4.10;;;3.70;;
18661;SDS011;61528;49.456;11.098;2022-07-29T09:34:34;5.07;;;3.53;;
18661;SDS011;61528;49.456;11.098;2022-07-29T09:37:00;4.20;;;3.40;;
18661;SDS011;61528;49.456;11.098;2022-07-29T09:42:04;4.17;;;3.50;;
18661;SDS011;61528;49.456;11.098;2022-07-29T09:44:47;5.10;;;3.50;;
18661;SDS011;61528;49.456;11.098;2022-07-29T09:47:14;3.80;;;3.50;;
18661;SDS011;61528;49.456;11.098;2022-07-29T09:49:54;5.23;;;4.50;;
18661;SDS011;61528;49.456;11.098;2022-07-29T09:52:23;4.17;;;3.47;;
18661;SDS011;61528;49.456;11.098;2022-07-29T09:54:49;4.80;;;3.33;;
18661;SDS011;61528;49.456;11.098;2022-07-29T09:57:28;4.90;;;3.27;;
18661;SDS011;61528;49.456;11.098;2022-07-29T10:00:13;3.93;;;3.53;;
18661;SDS011;61528;49.456;11.098;2022-07-29T10:02:41;4.80;;;3.30;;
18661;SDS011;61528;49.456;11.098;2022-07-29T10:05:29;3.63;;;3.33;;
18661;SDS011;61528;49.456;11.098;2022-07-29T10:07:57;6.43;;;3.57;;
18661;SDS011;61528;49.456;11.098;2022-07-29T10:10:24;5.73;;;3.33;;
18661;SDS011;61528;49.456;11.098;2022-07-29T10:12:52;5.30;;;3.23;;
18661;SDS011;61528;49.456;11.098;2022-07-29T10:15:18;4.50;;;3.17;;
18661;SDS011;61528;49.456;11.098;2022-07-29T10:17:45;6.13;;;3.40;;
18661;SDS011;61528;49.456;11.098;2022-07-29T10:20:12;4.40;;;3.57;;
18661;SDS011;61528;49.456;11.098;2022-07-29T10:22:38;4.68;;;3.38;;
18661;SDS011;61528;49.456;11.098;2022-07-29T10:25:05;4.47;;;3.27;;
18661;SDS011;61528;49.456;11.098;2022-07-29T10:27:32;3.60;;;3.30;;
18661;SDS011;61528;49.456;11.098;2022-07-29T10:29:58;3.80;;;3.23;;
18661;SDS011;61528;49.456;11.098;2022-07-29T10:37:59;3.95;;;3.55;;
18661;SDS011;61528;49.456;11.098;2022-07-29T10:40:35;7.47;;;3.70;;
18661;SDS011;61528;49.456;11.098;2022-07-29T10:43:26;5.25;;;3.78;;
18661;SDS011;61528;49.456;11.098;2022-07-29T10:45:57;4.88;;;4.05;;
18661;SDS011;61528;49.456;11.098;2022-07-29T10:48:23;7.75;;;4.20;;
18661;SDS011;61528;49.456;11.098;2022-07-29T10:51:00;4.68;;;4.05;;
18661;SDS011;61528;49.456;11.098;2022-07-29T10:56:25;6.80;;;3.90;;
18661;SDS011;61528;49.456;11.098;2022-07-29T11:01:37;6.95;;;4.18;;
18661;SDS011;61528;49.456;11.098;2022-07-29T11:04:03;5.20;;;4.03;;
18661;SDS011;61528;49.456;11.098;2022-07-29T11:07:12;4.40;;;4.00;;
18661;SDS011;61528;49.456;11.098;2022-07-29T11:09:20;4.88;;;4.20;;
18661;SDS011;61528;49.456;11.098;2022-07-29T11:11:47;4.45;;;4.05;;
18661;SDS011;61528;49.456;11.098;2022-07-29T11:14:14;6.00;;;4.38;;
18661;SDS011;61528;49.456;11.098;2022-07-29T11:16:58;4.30;;;3.90;;
18661;SDS011;61528;49.456;11.098;2022-07-29T11:19:27;4.55;;;4.07;;
18661;SDS011;61528;49.456;11.098;2022-07-29T11:21:53;10.82;;;4.53;;
18661;SDS011;61528;49.456;11.098;2022-07-29T11:24:20;5.00;;;4.13;;
18661;SDS011;61528;49.456;11.098;2022-07-29T11:29:34;4.22;;;3.92;;
18661;SDS011;61528;49.456;11.098;2022-07-29T11:32:08;7.20;;;4.47;;
18661;SDS011;61528;49.456;11.098;2022-07-29T11:34:38;4.70;;;4.30;;
18661;SDS011;61528;49.456;11.098;2022-07-29T11:44:54;4.68;;;4.28;;
18661;SDS011;61528;49.456;11.098;2022-07-29T11:47:24;5.22;;;4.45;;
18661;SDS011;61528;49.456;11.098;2022-07-29T11:49:51;5.97;;;4.20;;
18661;SDS011;61528;49.456;11.098;2022-07-29T11:52:17;4.68;;;4.28;;
18661;SDS011;61528;49.456;11.098;2022-07-29T11:54:44;6.63;;;4.90;;
18661;SDS011;61528;49.456;11.098;2022-07-29T11:57:10;7.63;;;4.78;;
18661;SDS011;61528;49.456;11.098;2022-07-29T11:59:40;5.80;;;4.53;;
18661;SDS011;61528;49.456;11.098;2022-07-29T12:02:07;4.70;;;4.28;;
18661;SDS011;61528;49.456;11.098;2022-07-29T12:04:33;4.97;;;4.47;;
18661;SDS011;61528;49.456;11.098;2022-07-29T12:07:00;4.50;;;4.20;;
18661;SDS011;61528;49.456;11.098;2022-07-29T12:09:27;4.65;;;4.18;;
18661;SDS011;61528;49.456;11.098;2022-07-29T12:11:56;4.30;;;4.00;;
18661;SDS011;61528;49.456;11.098;2022-07-29T12:14:30;4.22;;;3.92;;
18661;SDS011;61528;49.456;11.098;2022-07-29T12:16:57;4.45;;;4.13;;
18661;SDS011;61528;49.456;11.098;2022-07-29T12:19:25;5.95;;;4.15;;
18661;SDS011;61528;49.456;11.098;2022-07-29T12:21:52;4.55;;;4.15;;
18661;SDS011;61528;49.456;11.098;2022-07-29T12:24:20;4.53;;;4.07;;
18661;SDS011;61528;49.456;11.098;2022-07-29T12:26:54;7.70;;;4.03;;
18661;SDS011;61528;49.456;11.098;2022-07-29T12:29:23;4.20;;;3.80;;
18661;SDS011;61528;49.456;11.098;2022-07-29T12:31:52;5.80;;;4.40;;
18661;SDS011;61528;49.456;11.098;2022-07-29T12:34:23;5.60;;;3.85;;
18661;SDS011;61528;49.456;11.098;2022-07-29T12:36:51;7.10;;;4.10;;
18661;SDS011;61528;49.456;11.098;2022-07-29T12:39:18;5.75;;;3.92;;
18661;SDS011;61528;49.456;11.098;2022-07-29T12:41:45;5.53;;;4.05;;
18661;SDS011;61528;49.456;11.098;2022-07-29T12:44:11;4.40;;;4.00;;
18661;SDS011;61528;49.456;11.098;2022-07-29T12:46:40;4.50;;;4.10;;
18661;SDS011;61528;49.456;11.098;2022-07-29T12:49:28;4.43;;;3.92;;
18661;SDS011;61528;49.456;11.098;2022-07-29T12:51:55;4.75;;;4.00;;
18661;SDS011;61528;49.456;11.098;2022-07-29T12:54:30;5.38;;;4.10;;
18661;SDS011;61528;49.456;11.098;2022-07-29T12:57:00;4.43;;;4.03;;
18661;SDS011;61528;49.456;11.098;2022-07-29T12:59:27;5.05;;;4.40;;
18661;SDS011;61528;49.456;11.098;2022-07-29T13:01:54;5.43;;;4.47;;
18661;SDS011;61528;49.456;11.098;2022-07-29T13:04:27;5.65;;;3.83;;
18661;SDS011;61528;49.456;11.098;2022-07-29T13:07:02;4.60;;;4.03;;
18661;SDS011;61528;49.456;11.098;2022-07-29T13:15:18;4.65;;;4.00;;
18661;SDS011;61528;49.456;11.098;2022-07-29T13:17:52;4.97;;;4.00;;
18661;SDS011;61528;49.456;11.098;2022-07-29T13:20:22;6.13;;;4.20;;
18661;SDS011;61528;49.456;11.098;2022-07-29T13:22:55;4.78;;;4.40;;
18661;SDS011;61528;49.456;11.098;2022-07-29T13:25:40;5.55;;;4.00;;
18661;SDS011;61528;49.456;11.098;2022-07-29T13:28:07;4.60;;;4.00;;
18661;SDS011;61528;49.456;11.098;2022-07-29T13:30:33;4.57;;;4.07;;
18661;SDS011;61528;49.456;11.098;2022-07-29T13:32:59;6.10;;;4.10;;
18661;SDS011;61528;49.456;11.098;2022-07-29T13:35:26;5.55;;;3.80;;
18661;SDS011;61528;49.456;11.098;2022-07-29T13:37:54;7.40;;;3.35;;
18661;SDS011;61528;49.456;11.098;2022-07-29T13:40:21;4.72;;;3.20;;
18661;SDS011;61528;49.456;11.098;2022-07-29T13:42:47;3.75;;;3.35;;
18661;SDS011;61528;49.456;11.098;2022-07-29T13:45:13;4.75;;;3.30;;
18661;SDS011;61528;49.456;11.098;2022-07-29T13:47:39;3.90;;;3.25;;
18661;SDS011;61528;49.456;11.098;2022-07-29T13:50:07;3.67;;;3.20;;
18661;SDS011;61528;49.456;11.098;2022-07-29T13:52:34;5.60;;;3.10;;
18661;SDS011;61528;49.456;11.098;2022-07-29T13:55:01;3.40;;;2.93;;
18661;SDS011;61528;49.456;11.098;2022-07-29T13:57:28;3.22;;;2.42;;
18661;SDS011;61528;49.456;11.098;2022-07-29T13:59:54;4.38;;;3.10;;
18661;SDS011;61528;49.456;11.098;2022-07-29T14:02:21;3.37;;;3.00;;
18661;SDS011;61528;49.456;11.098;2022-07-29T14:04:47;4.70;;;2.67;;
18661;SDS011;61528;49.456;11.098;2022-07-29T14:07:14;4.00;;;2.80;;
18661;SDS011;61528;49.456;11.098;2022-07-29T14:09:40;4.60;;;3.10;;
18661;SDS011;61528;49.456;11.098;2022-07-29T14:12:06;3.70;;;3.00;;
18661;SDS011;61528;49.456;11.098;2022-07-29T14:14:33;3.40;;;3.10;;
18661;SDS011;61528;49.456;11.098;2022-07-29T14:17:00;3.73;;;3.20;;
18661;SDS011;61528;49.456;11.098;2022-07-29T14:19:28;4.10;;;3.10;;
18661;SDS011;61528;49.456;11.098;2022-07-29T14:21:54;2.90;;;2.60;;
18661;SDS011;61528;49.456;11.098;2022-07-29T14:24:21;4.80;;;2.83;;
18661;SDS011;61528;49.456;11.098;2022-07-29T14:26:47;5.53;;;3.13;;
18661;SDS011;61528;49.456;11.098;2022-07-29T14:29:13;6.00;;;3.30;;
18661;SDS011;61528;49.456;11.098;2022-07-29T14:31:39;4.83;;;3.37;;
18661;SDS011;61528;49.456;11.098;2022-07-29T14:34:09;4.13;;;2.70;;
18661;SDS011;61528;49.456;11.098;2022-07-29T14:36:35;4.67;;;3.27;;
18661;SDS011;61528;49.456;11.098;2022-07-29T14:39:02;4.60;;;2.93;;
18661;SDS011;61528;49.456;11.098;2022-07-29T14:41:29;4.83;;;3.13;;
18661;SDS011;61528;49.456;11.098;2022-07-29T14:43:55;3.57;;;3.00;;
18661;SDS011;61528;49.456;11.098;2022-07-29T14:46:22;3.10;;;2.90;;
18661;SDS011;61528;49.456;11.098;2022-07-29T14:48:48;4.60;;;2.77;;
18661;SDS011;61528;49.456;11.098;2022-07-29T14:51:15;4.97;;;2.83;;
18661;SDS011;61528;49.456;11.098;2022-07-29T14:53:41;3.83;;;3.30;;
18661;SDS011;61528;49.456;11.098;2022-07-29T14:56:08;3.40;;;3.00;;
18661;SDS011;61528;49.456;11.098;2022-07-29T14:58:34;4.07;;;3.37;;
18661;SDS011;61528;49.456;11.098;2022-07-29T15:01:01;4.03;;;2.80;;
18661;SDS011;61528;49.456;11.098;2022-07-29T15:03:27;5.07;;;3.00;;
18661;SDS011;61528;49.456;11.098;2022-07-29T15:05:54;5.67;;;2.93;;
18661;SDS011;61528;49.456;11.098;2022-07-29T15:08:20;4.80;;;3.20;;
18661;SDS011;61528;49.456;11.098;2022-07-29T15:10:46;3.40;;;3.10;;
18661;SDS011;61528;49.456;11.098;2022-07-29T15:13:13;4.60;;;3.50;;
18661;SDS011;61528;49.456;11.098;2022-07-29T15:15:39;3.47;;;3.17;;
18661;SDS011;61528;49.456;11.098;2022-07-29T15:18:06;4.40;;;2.97;;
18661;SDS011;61528;49.456;11.098;2022-07-29T15:20:32;4.20;;;3.10;;
18661;SDS011;61528;49.456;11.098;2022-07-29T15:22:59;4.47;;;3.50;;
18661;SDS011;61528;49.456;11.098;2022-07-29T15:25:25;5.70;;;3.57;;
18661;SDS011;61528;49.456;11.098;2022-07-29T15:27:51;6.13;;;3.77;;